Trumansburg, New York
Current Conditions -  °F | °C
As of 5:56 PM on Saturday 25 Oct 2014 (Local Time) from KITH Reporting Station
Broken Clouds Broken Clouds  
Wind Chill: 64°   Ceiling: 4500
Heat Index: 64°   Visibility: 10mi
Dew Point: 47°   Wind: 8mph
Humidity: 54%   Direction: 280°W
Pressure: 29.59"   Gusts: NA
Location:  42.54°N, 76.67°W
Report Text: KITH 252156Z 28007KT 10SM BKN045 18/08 A2959 RMK AO2 T01770083 SLP021
Loading
Personal Weather Stations






























Interactive Weather Map
Tropical Storm Tracking
New forecast layout! Learn more

10-Day Weather Forecast

Advertisements
Track Severe Weather on mobile